createdAt,value
2019-02-25T04:28:48.363Z,103738.83
2019-02-25T10:04:50.563Z,103750.55
2019-02-25T10:07:54.635Z,103754.38
2019-02-25T10:10:58.537Z,103747.70
2019-02-25T10:14:02.516Z,103744.42
2019-02-25T10:17:06.386Z,103743.92
2019-02-25T10:20:10.640Z,103735.33
2019-02-25T10:23:14.481Z,103724.75
2019-02-25T10:26:18.403Z,103719.52
2019-02-25T10:29:22.965Z,103714.36
2019-02-25T10:32:27.960Z,103708.70
2019-02-25T10:35:32.372Z,103701.58
2019-02-25T10:38:37.542Z,103697.70
2019-02-25T10:41:41.591Z,103706.36
2019-02-25T10:44:45.422Z,103699.61
2019-02-25T10:47:51.163Z,103706.86
2019-02-25T10:50:56.320Z,103701.92
2019-02-25T10:54:00.256Z,103708.92
2019-02-25T10:57:07.463Z,103699.48
2019-02-25T11:00:13.848Z,103690.28
2019-02-25T11:03:19.504Z,103687.19
2019-02-25T11:06:25.022Z,103687.02
2019-02-25T11:09:42.037Z,103688.88
2019-02-25T11:12:46.029Z,103694.55
2019-02-25T11:15:49.847Z,103702.45
2019-02-25T11:18:55.073Z,103699.56
2019-02-25T11:21:59.247Z,103693.08
2019-02-25T11:25:03.361Z,103699.12
2019-02-25T11:28:09.297Z,103697.11
2019-02-25T11:31:12.958Z,103704.11
2019-02-25T11:34:16.776Z,103697.22
2019-02-25T11:37:22.491Z,103700.92
2019-02-25T11:40:28.302Z,103689.23
2019-02-25T11:43:32.041Z,103694.23
2019-02-25T11:46:35.929Z,103693.23
2019-02-25T11:49:39.925Z,103696.85
2019-02-25T11:52:43.841Z,103702.80
2019-02-25T11:55:47.757Z,103703.81
2019-02-25T11:58:51.664Z,103706.00
2019-02-25T12:01:55.578Z,103695.40
2019-02-25T12:04:59.428Z,103700.30
2019-02-25T12:08:03.330Z,103703.87
2019-02-25T12:11:08.689Z,103700.09
2019-02-25T12:14:12.631Z,103700.20
2019-02-25T12:17:16.444Z,103700.65
2019-02-25T12:20:20.596Z,103692.83
2019-02-25T12:23:24.468Z,103679.92
2019-02-25T12:26:28.297Z,103671.34
2019-02-25T12:29:32.202Z,103667.04
2019-02-25T12:32:36.086Z,103663.23
2019-02-25T12:35:39.883Z,103657.09
2019-02-25T12:38:43.795Z,103657.84
2019-02-25T12:41:47.628Z,103652.42
2019-02-25T12:44:51.533Z,103639.02
2019-02-25T12:47:55.443Z,103633.50
2019-02-25T12:50:59.271Z,103618.08
2019-02-25T12:54:03.161Z,103616.86
2019-02-25T12:57:06.948Z,103624.61
2019-02-25T13:00:12.609Z,103631.33
2019-02-25T13:03:16.424Z,103624.80
2019-02-25T13:06:20.281Z,103620.58
2019-02-25T13:09:24.083Z,103618.14
2019-02-25T13:12:27.919Z,103604.62
2019-02-25T13:15:31.764Z,103617.08
2019-02-25T13:18:35.578Z,103609.83
2019-02-25T13:21:39.391Z,103606.83
2019-02-25T13:24:43.290Z,103596.19
2019-02-25T13:27:47.109Z,103587.64
2019-02-25T13:30:50.952Z,103585.68
2019-02-25T13:33:54.758Z,103579.55
2019-02-25T13:36:58.708Z,103582.04
2019-02-25T13:40:02.620Z,103574.59
2019-02-25T13:43:06.543Z,103562.36
2019-02-25T13:46:10.543Z,103570.02
2019-02-25T13:49:14.716Z,103567.35
2019-02-25T13:52:18.580Z,103556.64
2019-02-25T13:55:22.507Z,103566.98
2019-02-25T13:58:26.316Z,103569.02
2019-02-25T14:01:30.157Z,103566.38
2019-02-25T14:04:33.949Z,103574.95
2019-02-25T14:07:37.760Z,103566.58
2019-02-25T14:10:41.593Z,103558.33
2019-02-25T14:13:45.524Z,103557.44
2019-02-25T14:16:49.466Z,103549.80
2019-02-25T14:19:53.404Z,103553.49
2019-02-25T14:23:00.314Z,103552.41
2019-02-25T14:26:02.768Z,103554.40
2019-02-25T14:29:07.001Z,103558.77
2019-02-25T14:32:11.531Z,103554.77
2019-02-25T14:35:16.664Z,103544.03
2019-02-25T14:38:22.718Z,103546.61
2019-02-25T14:41:26.215Z,103547.57
2019-02-25T14:44:33.128Z,103542.64
2019-02-25T14:47:37.583Z,103550.09
2019-02-25T14:50:41.885Z,103553.66
2019-02-25T14:53:47.434Z,103550.05
2019-02-25T14:56:52.726Z,103545.58
2019-02-25T14:59:57.022Z,103536.46
2019-02-25T15:03:00.853Z,103541.07
2019-02-25T15:06:04.833Z,103550.80
2019-02-25T15:09:11.921Z,103544.12
2019-02-25T15:12:14.771Z,103550.02
2019-02-25T15:15:18.886Z,103535.13
2019-02-25T15:18:25.212Z,103536.75
2019-02-25T15:21:29.317Z,103544.38
2019-02-25T15:24:33.320Z,103549.95
2019-02-25T15:27:37.236Z,103563.81
2019-02-25T15:30:41.171Z,103562.72
2019-02-25T15:33:45.241Z,103548.86
2019-02-25T15:36:49.108Z,103551.86
2019-02-25T15:39:52.938Z,103554.25
2019-02-25T15:43:04.791Z,103537.43
2019-02-25T15:46:10.444Z,103540.05
2019-02-25T15:49:15.143Z,103533.37
2019-02-25T15:52:20.991Z,103529.72
2019-02-25T15:55:27.575Z,103527.48
2019-02-25T15:58:31.697Z,103521.17
2019-02-25T16:01:35.733Z,103520.92
2019-02-25T16:04:40.287Z,103528.64
2019-02-25T16:07:45.272Z,103528.05
2019-02-25T16:10:51.145Z,103534.92
2019-02-25T16:13:55.697Z,103523.61
2019-02-25T16:17:00.630Z,103529.60
2019-02-25T16:20:06.785Z,103531.46
2019-02-25T16:23:10.557Z,103531.36
2019-02-25T16:26:18.366Z,103527.89
2019-02-25T16:29:21.974Z,103523.97
2019-02-25T16:32:26.256Z,103530.00
2019-02-25T16:35:30.326Z,103531.63
2019-02-25T16:38:36.405Z,103545.41
2019-02-25T16:41:41.745Z,103554.73
2019-02-25T16:44:46.275Z,103550.03
2019-02-25T16:47:50.339Z,103554.05
2019-02-25T16:50:54.264Z,103559.41
2019-02-25T16:53:58.217Z,103564.38
2019-02-25T16:57:02.360Z,103561.22
2019-02-25T17:00:10.313Z,103558.17
2019-02-25T17:03:15.989Z,103554.31
2019-02-25T17:06:19.777Z,103562.19
2019-02-25T17:09:27.496Z,103578.86
2019-02-25T17:12:31.643Z,103577.74
2019-02-25T17:15:38.296Z,103578.86
2019-02-25T17:18:46.077Z,103586.34
2019-02-25T17:21:48.100Z,103591.89
2019-02-25T17:24:56.500Z,103602.60
2019-02-25T17:28:00.630Z,103602.13
2019-02-25T17:31:06.149Z,103611.66
2019-02-25T17:34:12.089Z,103600.31
2019-02-25T17:37:17.174Z,103581.41
2019-02-25T17:40:21.397Z,103571.44
2019-02-25T17:43:25.612Z,103561.08
2019-02-25T17:46:32.586Z,103553.38
2019-02-25T17:49:35.818Z,103551.77
2019-02-25T17:52:42.540Z,103555.47
2019-02-25T17:55:46.284Z,103570.28
2019-02-25T17:58:50.105Z,103579.97
2019-02-25T18:01:54.032Z,103583.00
2019-02-25T18:04:58.001Z,103575.70
2019-02-25T18:08:03.027Z,103581.61
2019-02-25T18:11:07.946Z,103572.21
2019-02-25T18:14:13.387Z,103561.58
2019-02-25T18:17:19.349Z,103558.63
2019-02-25T18:20:23.700Z,103566.84
2019-02-25T18:23:27.709Z,103562.54
2019-02-25T18:26:31.533Z,103560.50
2019-02-25T18:29:35.371Z,103566.33
2019-02-25T18:32:39.590Z,103552.29
2019-02-25T18:35:45.615Z,103555.11
2019-02-25T18:38:50.671Z,103549.08
2019-02-25T18:41:55.532Z,103546.92
2019-02-25T18:45:00.485Z,103551.97
2019-02-25T18:48:04.441Z,103558.26
2019-02-25T18:51:08.387Z,103555.37
2019-02-25T18:54:12.337Z,103547.49
2019-02-25T18:57:16.332Z,103533.59
2019-02-25T19:00:28.435Z,103538.16
2019-02-25T19:03:33.299Z,103532.16
2019-02-25T19:06:39.287Z,103528.45
2019-02-25T19:09:45.235Z,103533.01
2019-02-25T19:12:49.645Z,103534.53
2019-02-25T19:15:56.891Z,103517.67
2019-02-25T19:19:03.596Z,103492.21
2019-02-25T19:22:08.113Z,103497.50
2019-02-25T19:25:15.791Z,103492.72
2019-02-25T19:28:21.415Z,103499.81
2019-02-25T19:31:26.561Z,103487.70
2019-02-25T19:34:30.905Z,103477.00
2019-02-25T19:37:38.231Z,103486.03
2019-02-25T19:40:43.245Z,103473.05
2019-02-25T19:43:48.509Z,103478.81
2019-02-25T19:46:53.814Z,103482.83
2019-02-25T19:49:59.576Z,103481.62
2019-02-25T19:53:05.262Z,103481.54
2019-02-25T19:56:09.971Z,103491.23
2019-02-25T19:59:13.934Z,103506.60
2019-02-25T20:02:17.956Z,103502.11
2019-02-25T20:05:24.036Z,103505.83
2019-02-25T20:08:27.938Z,103508.06
2019-02-25T20:11:31.950Z,103501.20
2019-02-25T20:14:36.473Z,103506.76
2019-02-25T20:17:40.530Z,103494.25
2019-02-25T20:20:44.601Z,103496.44
2019-02-25T20:23:50.100Z,103493.06
2019-02-25T20:26:59.701Z,103490.00
2019-02-25T20:30:03.185Z,103487.11
2019-02-25T20:33:08.734Z,103489.17
2019-02-25T20:36:17.175Z,103489.78
2019-02-25T20:39:19.902Z,103482.25
2019-02-25T20:42:25.838Z,103471.14
2019-02-25T20:45:31.012Z,103480.23
2019-02-25T20:48:36.563Z,103479.56
2019-02-25T20:51:40.807Z,103491.67
2019-02-25T20:54:48.017Z,103490.78
2019-02-25T20:57:52.199Z,103484.08
2019-02-25T21:00:56.656Z,103484.25
